sensor_id;sensor_type;location;lat;lon;timestamp;temperature;humidity
18153;DHT22;9202;51.578;7.734;2022-07-23T00:00:41;16.90;99.90
18153;DHT22;9202;51.578;7.734;2022-07-23T00:05:00;16.90;99.90
18153;DHT22;9202;51.578;7.734;2022-07-23T00:07:03;16.90;99.90
18153;DHT22;9202;51.578;7.734;2022-07-23T00:09:07;16.80;99.90
18153;DHT22;9202;51.578;7.734;2022-07-23T00:11:11;16.80;99.90
18153;DHT22;9202;51.578;7.734;2022-07-23T00:13:14;16.80;99.90
18153;DHT22;9202;51.578;7.734;2022-07-23T00:15:18;16.80;99.90
18153;DHT22;9202;51.578;7.734;2022-07-23T00:17:22;16.70;99.90
18153;DHT22;9202;51.578;7.734;2022-07-23T00:19:25;16.70;99.90
18153;DHT22;9202;51.578;7.734;2022-07-23T00:21:29;16.60;99.90
18153;DHT22;9202;51.578;7.734;2022-07-23T00:23:32;16.50;99.90
18153;DHT22;9202;51.578;7.734;2022-07-23T00:25:36;16.40;99.90
18153;DHT22;9202;51.578;7.734;2022-07-23T00:27:40;16.40;99.90
18153;DHT22;9202;51.578;7.734;2022-07-23T00:29:43;16.30;99.90
18153;DHT22;9202;51.578;7.734;2022-07-23T00:31:47;16.20;99.90
18153;DHT22;9202;51.578;7.734;2022-07-23T00:33:50;16.10;99.90
18153;DHT22;9202;51.578;7.734;2022-07-23T00:35:55;16.00;99.90
18153;DHT22;9202;51.578;7.734;2022-07-23T00:37:59;15.90;99.90
18153;DHT22;9202;51.578;7.734;2022-07-23T00:40:06;15.90;99.90
18153;DHT22;9202;51.578;7.734;2022-07-23T00:42:10;15.90;99.90
18153;DHT22;9202;51.578;7.734;2022-07-23T00:44:18;15.90;99.90
18153;DHT22;9202;51.578;7.734;2022-07-23T00:46:22;15.90;99.90
18153;DHT22;9202;51.578;7.734;2022-07-23T00:48:28;15.90;99.90
18153;DHT22;9202;51.578;7.734;2022-07-23T00:50:31;15.90;99.90
18153;DHT22;9202;51.578;7.734;2022-07-23T00:52:36;15.90;99.90
18153;DHT22;9202;51.578;7.734;2022-07-23T00:54:41;15.90;99.90
18153;DHT22;9202;51.578;7.734;2022-07-23T00:56:45;15.90;99.90
18153;DHT22;9202;51.578;7.734;2022-07-23T00:58:49;15.80;99.90
18153;DHT22;9202;51.578;7.734;2022-07-23T01:00:53;15.80;99.90
18153;DHT22;9202;51.578;7.734;2022-07-23T01:02:57;15.90;99.90
18153;DHT22;9202;51.578;7.734;2022-07-23T01:05:01;15.90;99.90
18153;DHT22;9202;51.578;7.734;2022-07-23T01:07:05;15.70;99.90
18153;DHT22;9202;51.578;7.734;2022-07-23T01:09:08;15.70;99.90
18153;DHT22;9202;51.578;7.734;2022-07-23T01:11:12;15.80;99.90
18153;DHT22;9202;51.578;7.734;2022-07-23T01:13:16;15.60;99.90
18153;DHT22;9202;51.578;7.734;2022-07-23T01:15:20;15.60;99.90
18153;DHT22;9202;51.578;7.734;2022-07-23T01:17:23;15.70;99.90
18153;DHT22;9202;51.578;7.734;2022-07-23T01:19:27;15.70;99.90
18153;DHT22;9202;51.578;7.734;2022-07-23T01:21:31;15.80;99.90
18153;DHT22;9202;51.578;7.734;2022-07-23T01:23:35;15.80;99.90
18153;DHT22;9202;51.578;7.734;2022-07-23T01:25:47;15.80;99.90
18153;DHT22;9202;51.578;7.734;2022-07-23T01:27:52;15.80;99.90
18153;DHT22;9202;51.578;7.734;2022-07-23T01:29:57;15.80;99.90
18153;DHT22;9202;51.578;7.734;2022-07-23T01:32:03;15.80;99.90
18153;DHT22;9202;51.578;7.734;2022-07-23T01:34:07;15.80;99.90
18153;DHT22;9202;51.578;7.734;2022-07-23T01:36:12;15.80;99.90
18153;DHT22;9202;51.578;7.734;2022-07-23T01:38:15;15.80;99.90
18153;DHT22;9202;51.578;7.734;2022-07-23T01:40:20;15.80;99.90
18153;DHT22;9202;51.578;7.734;2022-07-23T01:42:26;15.80;99.90
18153;DHT22;9202;51.578;7.734;2022-07-23T01:44:29;15.80;99.90
18153;DHT22;9202;51.578;7.734;2022-07-23T01:46:33;15.80;99.90
18153;DHT22;9202;51.578;7.734;2022-07-23T01:48:38;15.80;99.90
18153;DHT22;9202;51.578;7.734;2022-07-23T01:50:44;15.80;99.90
18153;DHT22;9202;51.578;7.734;2022-07-23T01:52:50;15.80;99.90
18153;DHT22;9202;51.578;7.734;2022-07-23T01:54:54;15.80;99.90
18153;DHT22;9202;51.578;7.734;2022-07-23T01:56:58;15.80;99.90
18153;DHT22;9202;51.578;7.734;2022-07-23T01:59:02;15.80;99.90
18153;DHT22;9202;51.578;7.734;2022-07-23T02:01:06;15.90;99.90
18153;DHT22;9202;51.578;7.734;2022-07-23T02:03:10;15.90;99.90
18153;DHT22;9202;51.578;7.734;2022-07-23T02:05:14;15.80;99.90
18153;DHT22;9202;51.578;7.734;2022-07-23T02:07:17;15.80;99.90
18153;DHT22;9202;51.578;7.734;2022-07-23T02:09:21;15.90;99.90
18153;DHT22;9202;51.578;7.734;2022-07-23T02:11:25;15.90;99.90
18153;DHT22;9202;51.578;7.734;2022-07-23T02:13:29;15.90;99.90
18153;DHT22;9202;51.578;7.734;2022-07-23T02:15:35;15.90;99.90
18153;DHT22;9202;51.578;7.734;2022-07-23T02:17:39;15.90;99.90
18153;DHT22;9202;51.578;7.734;2022-07-23T02:19:44;15.90;99.90
18153;DHT22;9202;51.578;7.734;2022-07-23T02:21:47;15.90;99.90
18153;DHT22;9202;51.578;7.734;2022-07-23T02:23:51;15.80;99.90
18153;DHT22;9202;51.578;7.734;2022-07-23T02:25:55;15.80;99.90
18153;DHT22;9202;51.578;7.734;2022-07-23T02:27:58;15.80;99.90
18153;DHT22;9202;51.578;7.734;2022-07-23T02:30:03;15.70;99.90
18153;DHT22;9202;51.578;7.734;2022-07-23T02:32:07;15.70;99.90
18153;DHT22;9202;51.578;7.734;2022-07-23T02:34:10;15.70;99.90
18153;DHT22;9202;51.578;7.734;2022-07-23T02:36:14;15.70;99.90
18153;DHT22;9202;51.578;7.734;2022-07-23T02:38:18;15.70;99.90
18153;DHT22;9202;51.578;7.734;2022-07-23T02:40:21;15.70;99.90
18153;DHT22;9202;51.578;7.734;2022-07-23T02:42:25;15.70;99.90
18153;DHT22;9202;51.578;7.734;2022-07-23T02:44:29;15.70;99.90
18153;DHT22;9202;51.578;7.734;2022-07-23T02:46:32;15.70;99.90
18153;DHT22;9202;51.578;7.734;2022-07-23T02:48:37;15.70;99.90
18153;DHT22;9202;51.578;7.734;2022-07-23T02:50:40;15.70;99.90
18153;DHT22;9202;51.578;7.734;2022-07-23T02:52:44;15.70;99.90
18153;DHT22;9202;51.578;7.734;2022-07-23T02:54:48;15.70;99.90
18153;DHT22;9202;51.578;7.734;2022-07-23T02:56:52;15.70;99.90
18153;DHT22;9202;51.578;7.734;2022-07-23T02:58:56;15.70;99.90
18153;DHT22;9202;51.578;7.734;2022-07-23T03:00:59;15.70;99.90
18153;DHT22;9202;51.578;7.734;2022-07-23T03:03:03;15.70;99.90
18153;DHT22;9202;51.578;7.734;2022-07-23T03:05:08;15.70;99.90
18153;DHT22;9202;51.578;7.734;2022-07-23T03:07:12;15.70;99.90
18153;DHT22;9202;51.578;7.734;2022-07-23T03:09:15;15.60;99.90
18153;DHT22;9202;51.578;7.734;2022-07-23T03:11:19;15.60;99.90
18153;DHT22;9202;51.578;7.734;2022-07-23T03:13:23;15.50;99.90
18153;DHT22;9202;51.578;7.734;2022-07-23T03:15:28;15.50;99.90
18153;DHT22;9202;51.578;7.734;2022-07-23T03:17:31;15.50;99.90
18153;DHT22;9202;51.578;7.734;2022-07-23T03:19:35;15.50;99.90
18153;DHT22;9202;51.578;7.734;2022-07-23T03:21:40;15.50;99.90
18153;DHT22;9202;51.578;7.734;2022-07-23T03:23:44;15.40;99.90
18153;DHT22;9202;51.578;7.734;2022-07-23T03:25:48;15.40;99.90
18153;DHT22;9202;51.578;7.734;2022-07-23T03:27:54;15.30;99.90
18153;DHT22;9202;51.578;7.734;2022-07-23T03:29:59;15.30;99.90
18153;DHT22;9202;51.578;7.734;2022-07-23T03:32:02;15.30;99.90
18153;DHT22;9202;51.578;7.734;2022-07-23T03:34:06;15.30;99.90
18153;DHT22;9202;51.578;7.734;2022-07-23T03:36:10;15.20;99.90
18153;DHT22;9202;51.578;7.734;2022-07-23T03:38:17;15.20;99.90
18153;DHT22;9202;51.578;7.734;2022-07-23T03:40:22;15.20;99.90
18153;DHT22;9202;51.578;7.734;2022-07-23T03:42:25;15.10;99.90
18153;DHT22;9202;51.578;7.734;2022-07-23T03:44:30;15.10;99.90
18153;DHT22;9202;51.578;7.734;2022-07-23T03:46:33;15.10;99.90
18153;DHT22;9202;51.578;7.734;2022-07-23T03:48:37;15.10;99.90
18153;DHT22;9202;51.578;7.734;2022-07-23T03:50:41;15.10;99.90
18153;DHT22;9202;51.578;7.734;2022-07-23T03:52:44;15.00;99.90
18153;DHT22;9202;51.578;7.734;2022-07-23T03:54:48;15.00;99.90
18153;DHT22;9202;51.578;7.734;2022-07-23T03:56:52;15.00;99.90
18153;DHT22;9202;51.578;7.734;2022-07-23T03:58:55;15.00;99.90
18153;DHT22;9202;51.578;7.734;2022-07-23T04:00:59;15.00;99.90
18153;DHT22;9202;51.578;7.734;2022-07-23T04:03:03;14.90;99.90
18153;DHT22;9202;51.578;7.734;2022-07-23T04:05:09;14.90;99.90
18153;DHT22;9202;51.578;7.734;2022-07-23T04:07:13;15.00;99.90
18153;DHT22;9202;51.578;7.734;2022-07-23T04:09:16;14.90;99.90
18153;DHT22;9202;51.578;7.734;2022-07-23T04:11:21;14.90;99.90
18153;DHT22;9202;51.578;7.734;2022-07-23T04:13:25;14.90;99.90
18153;DHT22;9202;51.578;7.734;2022-07-23T04:15:28;14.90;99.90
18153;DHT22;9202;51.578;7.734;2022-07-23T04:17:32;15.00;99.90
18153;DHT22;9202;51.578;7.734;2022-07-23T04:19:36;15.00;99.90
18153;DHT22;9202;51.578;7.734;2022-07-23T04:21:41;14.90;99.90
18153;DHT22;9202;51.578;7.734;2022-07-23T04:23:45;14.90;99.90
18153;DHT22;9202;51.578;7.734;2022-07-23T04:25:49;14.90;99.90
18153;DHT22;9202;51.578;7.734;2022-07-23T04:27:53;14.90;99.90
18153;DHT22;9202;51.578;7.734;2022-07-23T04:29:56;14.90;99.90
18153;DHT22;9202;51.578;7.734;2022-07-23T04:32:00;14.80;99.90
18153;DHT22;9202;51.578;7.734;2022-07-23T04:34:04;14.80;99.90
18153;DHT22;9202;51.578;7.734;2022-07-23T04:36:08;14.90;99.90
18153;DHT22;9202;51.578;7.734;2022-07-23T04:38:12;14.90;99.90
18153;DHT22;9202;51.578;7.734;2022-07-23T04:40:16;14.90;99.90
18153;DHT22;9202;51.578;7.734;2022-07-23T04:42:19;14.90;99.90
18153;DHT22;9202;51.578;7.734;2022-07-23T04:44:23;14.90;99.90
18153;DHT22;9202;51.578;7.734;2022-07-23T04:46:27;15.00;99.90
18153;DHT22;9202;51.578;7.734;2022-07-23T04:48:31;15.00;99.90
18153;DHT22;9202;51.578;7.734;2022-07-23T04:50:37;15.00;99.90
18153;DHT22;9202;51.578;7.734;2022-07-23T04:52:40;15.00;99.90
18153;DHT22;9202;51.578;7.734;2022-07-23T04:54:44;15.00;99.90
18153;DHT22;9202;51.578;7.734;2022-07-23T04:56:48;15.00;99.90
18153;DHT22;9202;51.578;7.734;2022-07-23T04:58:53;15.00;99.90
18153;DHT22;9202;51.578;7.734;2022-07-23T05:00:56;15.00;99.90
18153;DHT22;9202;51.578;7.734;2022-07-23T05:03:01;15.00;99.90
18153;DHT22;9202;51.578;7.734;2022-07-23T05:05:06;15.00;99.90
18153;DHT22;9202;51.578;7.734;2022-07-23T05:07:10;15.10;99.90
18153;DHT22;9202;51.578;7.734;2022-07-23T05:09:13;15.10;99.90
18153;DHT22;9202;51.578;7.734;2022-07-23T05:11:17;15.00;99.90
18153;DHT22;9202;51.578;7.734;2022-07-23T05:13:23;15.10;99.90
18153;DHT22;9202;51.578;7.734;2022-07-23T05:15:27;15.10;99.90
18153;DHT22;9202;51.578;7.734;2022-07-23T05:17:31;15.10;99.90
18153;DHT22;9202;51.578;7.734;2022-07-23T05:19:37;15.10;99.90
18153;DHT22;9202;51.578;7.734;2022-07-23T05:21:41;15.10;99.90
18153;DHT22;9202;51.578;7.734;2022-07-23T05:23:44;15.10;99.90
18153;DHT22;9202;51.578;7.734;2022-07-23T05:25:48;15.20;99.90
18153;DHT22;9202;51.578;7.734;2022-07-23T05:27:53;15.20;99.90
18153;DHT22;9202;51.578;7.734;2022-07-23T05:29:56;15.20;99.90
18153;DHT22;9202;51.578;7.734;2022-07-23T05:32:00;15.30;99.90
18153;DHT22;9202;51.578;7.734;2022-07-23T05:34:05;15.30;99.90
18153;DHT22;9202;51.578;7.734;2022-07-23T05:36:10;15.40;99.90
18153;DHT22;9202;51.578;7.734;2022-07-23T05:38:15;15.40;99.90
18153;DHT22;9202;51.578;7.734;2022-07-23T05:40:19;15.40;99.90
18153;DHT22;9202;51.578;7.734;2022-07-23T05:42:22;15.40;99.90
18153;DHT22;9202;51.578;7.734;2022-07-23T05:44:26;15.50;99.90
18153;DHT22;9202;51.578;7.734;2022-07-23T05:46:32;15.50;99.90
18153;DHT22;9202;51.578;7.734;2022-07-23T05:48:37;15.50;99.90
18153;DHT22;9202;51.578;7.734;2022-07-23T05:50:43;15.50;99.90
18153;DHT22;9202;51.578;7.734;2022-07-23T05:52:48;15.50;99.90
18153;DHT22;9202;51.578;7.734;2022-07-23T05:54:54;15.50;99.90
18153;DHT22;9202;51.578;7.734;2022-07-23T05:56:58;15.50;99.90
18153;DHT22;9202;51.578;7.734;2022-07-23T05:59:02;15.60;99.90
18153;DHT22;9202;51.578;7.734;2022-07-23T06:01:06;15.60;99.90
18153;DHT22;9202;51.578;7.734;2022-07-23T06:03:12;15.60;99.90
18153;DHT22;9202;51.578;7.734;2022-07-23T06:05:16;15.60;99.90
18153;DHT22;9202;51.578;7.734;2022-07-23T06:07:20;15.70;99.90
18153;DHT22;9202;51.578;7.734;2022-07-23T06:09:24;15.60;99.90
18153;DHT22;9202;51.578;7.734;2022-07-23T06:11:28;15.60;99.90
18153;DHT22;9202;51.578;7.734;2022-07-23T06:13:32;15.70;99.90
18153;DHT22;9202;51.578;7.734;2022-07-23T06:15:36;15.80;99.90
18153;DHT22;9202;51.578;7.734;2022-07-23T06:17:40;15.80;99.90
18153;DHT22;9202;51.578;7.734;2022-07-23T06:19:44;15.80;99.90
18153;DHT22;9202;51.578;7.734;2022-07-23T06:21:48;15.80;99.90
18153;DHT22;9202;51.578;7.734;2022-07-23T06:23:52;15.90;99.90
18153;DHT22;9202;51.578;7.734;2022-07-23T06:25:56;16.00;99.90
18153;DHT22;9202;51.578;7.734;2022-07-23T06:28:00;16.00;99.90
18153;DHT22;9202;51.578;7.734;2022-07-23T06:30:05;16.10;99.90
18153;DHT22;9202;51.578;7.734;2022-07-23T06:32:10;16.20;99.90
18153;DHT22;9202;51.578;7.734;2022-07-23T06:34:14;16.00;99.90
18153;DHT22;9202;51.578;7.734;2022-07-23T06:36:18;16.10;99.90
18153;DHT22;9202;51.578;7.734;2022-07-23T06:38:22;16.20;99.90
18153;DHT22;9202;51.578;7.734;2022-07-23T06:40:26;16.20;99.90
18153;DHT22;9202;51.578;7.734;2022-07-23T06:42:30;16.30;99.90
18153;DHT22;9202;51.578;7.734;2022-07-23T06:44:34;16.40;99.90
18153;DHT22;9202;51.578;7.734;2022-07-23T06:48:54;16.40;99.90
18153;DHT22;9202;51.578;7.734;2022-07-23T06:50:58;16.40;99.90
18153;DHT22;9202;51.578;7.734;2022-07-23T06:53:02;16.50;99.90
18153;DHT22;9202;51.578;7.734;2022-07-23T06:55:06;16.50;99.90
18153;DHT22;9202;51.578;7.734;2022-07-23T06:57:10;16.50;99.90
18153;DHT22;9202;51.578;7.734;2022-07-23T06:59:14;16.40;99.90
18153;DHT22;9202;51.578;7.734;2022-07-23T07:01:19;16.50;99.90
18153;DHT22;9202;51.578;7.734;2022-07-23T07:03:22;16.50;99.90
18153;DHT22;9202;51.578;7.734;2022-07-23T07:05:26;16.50;99.90
18153;DHT22;9202;51.578;7.734;2022-07-23T07:07:30;16.40;99.90
18153;DHT22;9202;51.578;7.734;2022-07-23T07:09:33;16.40;99.90
18153;DHT22;9202;51.578;7.734;2022-07-23T07:11:37;16.60;99.90
18153;DHT22;9202;51.578;7.734;2022-07-23T07:13:41;16.80;99.90
18153;DHT22;9202;51.578;7.734;2022-07-23T07:15:44;17.00;99.90
18153;DHT22;9202;51.578;7.734;2022-07-23T07:17:48;17.20;99.90
18153;DHT22;9202;51.578;7.734;2022-07-23T07:19:52;17.20;99.90
18153;DHT22;9202;51.578;7.734;2022-07-23T07:21:55;17.20;99.90
18153;DHT22;9202;51.578;7.734;2022-07-23T07:23:59;17.00;99.90
18153;DHT22;9202;51.578;7.734;2022-07-23T07:26:03;17.00;99.90
18153;DHT22;9202;51.578;7.734;2022-07-23T07:28:06;17.00;99.90
18153;DHT22;9202;51.578;7.734;2022-07-23T07:30:12;16.90;99.90
18153;DHT22;9202;51.578;7.734;2022-07-23T07:32:16;16.80;99.90
18153;DHT22;9202;51.578;7.734;2022-07-23T07:34:21;16.70;99.90
18153;DHT22;9202;51.578;7.734;2022-07-23T07:36:25;16.70;99.90
18153;DHT22;9202;51.578;7.734;2022-07-23T07:38:28;16.60;99.90
18153;DHT22;9202;51.578;7.734;2022-07-23T07:40:32;16.70;99.90
18153;DHT22;9202;51.578;7.734;2022-07-23T07:42:45;16.80;99.90
18153;DHT22;9202;51.578;7.734;2022-07-23T07:44:49;16.90;99.90
18153;DHT22;9202;51.578;7.734;2022-07-23T07:46:52;16.90;99.90
18153;DHT22;9202;51.578;7.734;2022-07-23T07:48:56;17.10;99.90
18153;DHT22;9202;51.578;7.734;2022-07-23T07:51:00;17.30;99.90
18153;DHT22;9202;51.578;7.734;2022-07-23T07:53:04;17.50;99.90
18153;DHT22;9202;51.578;7.734;2022-07-23T07:55:10;17.50;99.90
18153;DHT22;9202;51.578;7.734;2022-07-23T07:57:14;17.60;99.90
18153;DHT22;9202;51.578;7.734;2022-07-23T07:59:19;17.50;99.90
18153;DHT22;9202;51.578;7.734;2022-07-23T08:01:23;17.60;99.90
18153;DHT22;9202;51.578;7.734;2022-07-23T08:03:28;17.60;99.90
18153;DHT22;9202;51.578;7.734;2022-07-23T08:05:32;17.60;99.90
18153;DHT22;9202;51.578;7.734;2022-07-23T08:07:35;17.60;99.90
18153;DHT22;9202;51.578;7.734;2022-07-23T08:09:40;17.60;99.90
18153;DHT22;9202;51.578;7.734;2022-07-23T08:11:43;17.60;99.90
18153;DHT22;9202;51.578;7.734;2022-07-23T08:13:47;17.60;99.90
18153;DHT22;9202;51.578;7.734;2022-07-23T08:15:51;17.60;99.90
18153;DHT22;9202;51.578;7.734;2022-07-23T08:17:56;17.50;99.90
18153;DHT22;9202;51.578;7.734;2022-07-23T08:20:00;17.70;99.90
18153;DHT22;9202;51.578;7.734;2022-07-23T08:22:04;17.90;99.90
18153;DHT22;9202;51.578;7.734;2022-07-23T08:24:08;18.10;99.90
18153;DHT22;9202;51.578;7.734;2022-07-23T08:26:12;18.20;99.90
18153;DHT22;9202;51.578;7.734;2022-07-23T08:28:16;18.30;99.90
18153;DHT22;9202;51.578;7.734;2022-07-23T08:30:20;18.60;99.90
18153;DHT22;9202;51.578;7.734;2022-07-23T08:32:24;18.80;99.90
18153;DHT22;9202;51.578;7.734;2022-07-23T08:34:29;18.80;99.90
18153;DHT22;9202;51.578;7.734;2022-07-23T08:36:32;18.70;99.90
18153;DHT22;9202;51.578;7.734;2022-07-23T08:38:36;18.60;99.90
18153;DHT22;9202;51.578;7.734;2022-07-23T08:40:41;18.40;99.90
18153;DHT22;9202;51.578;7.734;2022-07-23T08:42:48;18.70;99.90
18153;DHT22;9202;51.578;7.734;2022-07-23T08:44:51;18.80;99.90
18153;DHT22;9202;51.578;7.734;2022-07-23T08:46:55;18.60;99.90
18153;DHT22;9202;51.578;7.734;2022-07-23T08:48:59;18.50;99.90
18153;DHT22;9202;51.578;7.734;2022-07-23T08:51:05;18.40;99.90
18153;DHT22;9202;51.578;7.734;2022-07-23T08:53:11;18.30;99.90
18153;DHT22;9202;51.578;7.734;2022-07-23T08:55:17;18.20;99.90
18153;DHT22;9202;51.578;7.734;2022-07-23T08:57:21;18.30;99.90
18153;DHT22;9202;51.578;7.734;2022-07-23T08:59:24;18.20;99.90
18153;DHT22;9202;51.578;7.734;2022-07-23T09:01:29;18.10;99.90
18153;DHT22;9202;51.578;7.734;2022-07-23T09:03:36;18.10;99.90
18153;DHT22;9202;51.578;7.734;2022-07-23T09:05:39;18.30;99.90
18153;DHT22;9202;51.578;7.734;2022-07-23T09:08:09;18.70;99.90
18153;DHT22;9202;51.578;7.734;2022-07-23T09:10:13;19.10;99.90
18153;DHT22;9202;51.578;7.734;2022-07-23T09:12:16;19.40;99.90
18153;DHT22;9202;51.578;7.734;2022-07-23T09:14:35;19.60;99.90
18153;DHT22;9202;51.578;7.734;2022-07-23T09:16:40;19.80;99.90
18153;DHT22;9202;51.578;7.734;2022-07-23T09:21:13;20.10;99.90
18153;DHT22;9202;51.578;7.734;2022-07-23T09:23:17;20.30;99.90
18153;DHT22;9202;51.578;7.734;2022-07-23T09:25:21;20.20;99.90
18153;DHT22;9202;51.578;7.734;2022-07-23T09:27:26;19.80;99.90
18153;DHT22;9202;51.578;7.734;2022-07-23T09:29:31;19.70;99.90
18153;DHT22;9202;51.578;7.734;2022-07-23T09:31:44;19.50;99.90
18153;DHT22;9202;51.578;7.734;2022-07-23T09:33:48;19.50;99.90
18153;DHT22;9202;51.578;7.734;2022-07-23T09:35:53;19.50;99.90
18153;DHT22;9202;51.578;7.734;2022-07-23T09:38:02;19.70;99.90
18153;DHT22;9202;51.578;7.734;2022-07-23T09:40:08;20.00;99.90
18153;DHT22;9202;51.578;7.734;2022-07-23T09:42:16;20.40;99.90
18153;DHT22;9202;51.578;7.734;2022-07-23T09:44:20;20.90;99.90
18153;DHT22;9202;51.578;7.734;2022-07-23T09:46:27;21.10;99.90
18153;DHT22;9202;51.578;7.734;2022-07-23T09:48:31;20.90;99.90
18153;DHT22;9202;51.578;7.734;2022-07-23T09:50:35;20.70;99.90
18153;DHT22;9202;51.578;7.734;2022-07-23T09:52:43;20.40;99.90
18153;DHT22;9202;51.578;7.734;2022-07-23T09:54:46;20.20;99.90
18153;DHT22;9202;51.578;7.734;2022-07-23T09:56:55;19.90;99.90
18153;DHT22;9202;51.578;7.734;2022-07-23T09:59:00;19.80;99.90
18153;DHT22;9202;51.578;7.734;2022-07-23T10:01:06;19.80;99.90
18153;DHT22;9202;51.578;7.734;2022-07-23T10:03:11;20.10;99.90
18153;DHT22;9202;51.578;7.734;2022-07-23T10:05:16;20.40;99.90
18153;DHT22;9202;51.578;7.734;2022-07-23T10:07:23;20.50;99.90
18153;DHT22;9202;51.578;7.734;2022-07-23T10:09:33;21.00;99.90
18153;DHT22;9202;51.578;7.734;2022-07-23T10:11:39;21.10;99.90
18153;DHT22;9202;51.578;7.734;2022-07-23T10:13:45;21.50;99.90
18153;DHT22;9202;51.578;7.734;2022-07-23T10:15:58;21.80;99.90
18153;DHT22;9202;51.578;7.734;2022-07-23T10:18:02;22.10;99.90
18153;DHT22;9202;51.578;7.734;2022-07-23T10:20:06;22.30;99.90
18153;DHT22;9202;51.578;7.734;2022-07-23T10:22:13;22.50;99.90
18153;DHT22;9202;51.578;7.734;2022-07-23T10:24:23;22.50;99.90
18153;DHT22;9202;51.578;7.734;2022-07-23T10:28:56;21.90;99.90
18153;DHT22;9202;51.578;7.734;2022-07-23T10:31:05;21.90;99.90
18153;DHT22;9202;51.578;7.734;2022-07-23T10:33:23;21.80;99.90
18153;DHT22;9202;51.578;7.734;2022-07-23T10:35:33;22.00;99.90
18153;DHT22;9202;51.578;7.734;2022-07-23T10:37:39;22.00;99.90
18153;DHT22;9202;51.578;7.734;2022-07-23T10:39:44;22.10;99.90
18153;DHT22;9202;51.578;7.734;2022-07-23T10:41:48;22.30;99.90
18153;DHT22;9202;51.578;7.734;2022-07-23T10:44:06;22.50;99.90
18153;DHT22;9202;51.578;7.734;2022-07-23T10:49:24;22.80;99.90
18153;DHT22;9202;51.578;7.734;2022-07-23T10:51:29;22.80;99.90
18153;DHT22;9202;51.578;7.734;2022-07-23T10:53:53;22.70;99.90
18153;DHT22;9202;51.578;7.734;2022-07-23T10:55:57;23.00;99.90
18153;DHT22;9202;51.578;7.734;2022-07-23T10:58:06;23.10;99.90
18153;DHT22;9202;51.578;7.734;2022-07-23T11:00:21;23.20;99.90
18153;DHT22;9202;51.578;7.734;2022-07-23T11:02:25;23.20;99.90
18153;DHT22;9202;51.578;7.734;2022-07-23T11:04:48;23.00;99.90
18153;DHT22;9202;51.578;7.734;2022-07-23T11:07:07;22.90;99.90
18153;DHT22;9202;51.578;7.734;2022-07-23T11:09:25;23.00;99.90
18153;DHT22;9202;51.578;7.734;2022-07-23T11:11:29;22.80;99.90
18153;DHT22;9202;51.578;7.734;2022-07-23T11:13:42;22.90;99.90
18153;DHT22;9202;51.578;7.734;2022-07-23T11:16:05;22.80;99.90
18153;DHT22;9202;51.578;7.734;2022-07-23T11:18:09;22.90;99.90
18153;DHT22;9202;51.578;7.734;2022-07-23T11:20:23;23.00;99.90
18153;DHT22;9202;51.578;7.734;2022-07-23T11:22:35;23.20;99.90
18153;DHT22;9202;51.578;7.734;2022-07-23T11:24:50;23.40;99.90
18153;DHT22;9202;51.578;7.734;2022-07-23T11:27:01;23.60;99.90
18153;DHT22;9202;51.578;7.734;2022-07-23T11:29:41;23.70;99.90
18153;DHT22;9202;51.578;7.734;2022-07-23T11:31:52;23.70;99.90
18153;DHT22;9202;51.578;7.734;2022-07-23T11:34:29;23.70;99.90
18153;DHT22;9202;51.578;7.734;2022-07-23T11:36:48;23.70;99.90
18153;DHT22;9202;51.578;7.734;2022-07-23T11:38:52;23.70;99.90
18153;DHT22;9202;51.578;7.734;2022-07-23T11:40:57;23.50;99.90
18153;DHT22;9202;51.578;7.734;2022-07-23T11:43:03;23.50;99.90
18153;DHT22;9202;51.578;7.734;2022-07-23T11:45:08;23.50;99.90
18153;DHT22;9202;51.578;7.734;2022-07-23T11:47:12;23.40;99.90
18153;DHT22;9202;51.578;7.734;2022-07-23T11:49:16;23.40;99.90
18153;DHT22;9202;51.578;7.734;2022-07-23T11:51:26;23.50;99.90
18153;DHT22;9202;51.578;7.734;2022-07-23T11:53:32;23.70;99.90
18153;DHT22;9202;51.578;7.734;2022-07-23T11:55:35;23.70;99.90
18153;DHT22;9202;51.578;7.734;2022-07-23T11:57:40;23.80;99.90
18153;DHT22;9202;51.578;7.734;2022-07-23T11:59:45;23.80;99.90
18153;DHT22;9202;51.578;7.734;2022-07-23T12:01:57;23.70;99.90
18153;DHT22;9202;51.578;7.734;2022-07-23T12:04:01;23.60;99.90
18153;DHT22;9202;51.578;7.734;2022-07-23T12:06:06;23.60;99.90
18153;DHT22;9202;51.578;7.734;2022-07-23T12:08:10;23.70;99.90
18153;DHT22;9202;51.578;7.734;2022-07-23T12:10:16;23.80;99.90
18153;DHT22;9202;51.578;7.734;2022-07-23T12:12:20;24.00;99.90
18153;DHT22;9202;51.578;7.734;2022-07-23T12:14:23;23.80;99.90
18153;DHT22;9202;51.578;7.734;2022-07-23T12:16:27;23.80;99.90
18153;DHT22;9202;51.578;7.734;2022-07-23T12:18:31;23.80;99.90
18153;DHT22;9202;51.578;7.734;2022-07-23T12:20:40;24.00;99.90
18153;DHT22;9202;51.578;7.734;2022-07-23T12:25:07;24.10;99.90
18153;DHT22;9202;51.578;7.734;2022-07-23T12:27:12;24.20;99.90
18153;DHT22;9202;51.578;7.734;2022-07-23T12:29:16;24.30;99.90
18153;DHT22;9202;51.578;7.734;2022-07-23T12:31:26;24.30;99.90
18153;DHT22;9202;51.578;7.734;2022-07-23T12:33:31;24.40;99.90
18153;DHT22;9202;51.578;7.734;2022-07-23T12:35:38;24.40;99.90
18153;DHT22;9202;51.578;7.734;2022-07-23T12:37:45;24.30;99.90
18153;DHT22;9202;51.578;7.734;2022-07-23T12:39:49;24.30;99.90
18153;DHT22;9202;51.578;7.734;2022-07-23T12:41:53;24.40;99.90
18153;DHT22;9202;51.578;7.734;2022-07-23T12:43:57;24.50;99.90
18153;DHT22;9202;51.578;7.734;2022-07-23T12:46:05;24.60;99.90
18153;DHT22;9202;51.578;7.734;2022-07-23T12:48:16;24.70;99.90
18153;DHT22;9202;51.578;7.734;2022-07-23T12:50:35;24.90;99.90
18153;DHT22;9202;51.578;7.734;2022-07-23T12:52:39;25.00;99.90
18153;DHT22;9202;51.578;7.734;2022-07-23T12:54:42;24.90;99.90
18153;DHT22;9202;51.578;7.734;2022-07-23T12:56:46;24.80;99.90
18153;DHT22;9202;51.578;7.734;2022-07-23T12:58:52;24.70;99.90
18153;DHT22;9202;51.578;7.734;2022-07-23T13:01:03;24.70;99.90
18153;DHT22;9202;51.578;7.734;2022-07-23T13:05:40;24.80;99.90
18153;DHT22;9202;51.578;7.734;2022-07-23T13:07:46;24.80;99.90
18153;DHT22;9202;51.578;7.734;2022-07-23T13:09:50;24.90;99.90
18153;DHT22;9202;51.578;7.734;2022-07-23T13:11:54;25.10;99.90
18153;DHT22;9202;51.578;7.734;2022-07-23T13:14:00;25.20;99.90
18153;DHT22;9202;51.578;7.734;2022-07-23T13:16:04;25.30;99.90
18153;DHT22;9202;51.578;7.734;2022-07-23T13:18:10;25.20;99.90
18153;DHT22;9202;51.578;7.734;2022-07-23T13:20:14;25.20;99.90
18153;DHT22;9202;51.578;7.734;2022-07-23T13:22:19;25.20;99.90
18153;DHT22;9202;51.578;7.734;2022-07-23T13:24:22;25.10;99.90
18153;DHT22;9202;51.578;7.734;2022-07-23T13:26:27;25.00;99.90
18153;DHT22;9202;51.578;7.734;2022-07-23T13:28:30;25.00;99.90
18153;DHT22;9202;51.578;7.734;2022-07-23T13:30:34;25.00;99.90
18153;DHT22;9202;51.578;7.734;2022-07-23T13:32:38;24.70;99.90
18153;DHT22;9202;51.578;7.734;2022-07-23T13:34:42;24.70;99.90
18153;DHT22;9202;51.578;7.734;2022-07-23T13:36:46;24.80;99.90
18153;DHT22;9202;51.578;7.734;2022-07-23T13:38:49;24.90;99.90
18153;DHT22;9202;51.578;7.734;2022-07-23T13:40:54;24.90;99.90